Russellville, AR

7:22 AM CDT on October 20, 2014 (GMT -0500)
Clinton | Change Station
CLOSE
Current Station
Airport
Location: Clinton,
Elevation: 515 ft
Nearby Weather Stations

Elev 515 ft 35.60 °N, 92.45 °W | Updated 3 days ago

Partly Cloudy
Partly Cloudy
52 °F
Feels Like 52 °F
N
1
Wind Variable Wind from SW
Gusts mph

Today
High -- | Low -- °F
--% Chance of Precip.
Yesterday
High -- | Low -- °F
Precip. -- in
7:22 AM 6:30 PM
Waning Crescent, 11% visible
Pressure 29.89 in
Visibility 2.0 miles
Clouds Clear
Dew Point 47 °F
Humidity 83%
Rainfall 0.00 in
Snow Depth Not available.
UV 5 out of 12
Pollen 3.70 out of 12
Air Quality Not available.
Flu Activity Sporadic
METAR KCCA 161935Z AUTO 18003KT 2SM HZ CLR 24/10 A2989 RMK AO2 VSBY 1 1/2V3

More Conditions Fewer Conditions

Pressure 29.89 in
Visibility 2.0 miles
Clouds Clear
Dew Point 47 °F
Humidity 83%
Rainfall 0.00 in
Snow Depth Not available.
UV 5 out of 12
Pollen 3.70 out of 12
Air Quality Not available.
Flu Activity Sporadic
METAR KCCA 161935Z AUTO 18003KT 2SM HZ CLR 24/10 A2989 RMK AO2 VSBY 1 1/2V3

More Conditions Fewer Conditions

10-Day Weather Forecast

Almanac

Astronomy

Oct. 20, 2014 Rise Set
Actual Time 7:22 AM CDT 6:30 PM CDT
Civil Twilight 6:57 AM CDT 6:56 PM CDT
Nautical Twilight 6:27 AM CDT 7:26 PM CDT
Astronomical Twilight 5:58 AM CDT 7:55 PM CDT
Moon 4:18 AM CDT 4:48 PM CDT
Length of Visible Light 11h 59m
Length of Day
11h 08m
Waning Crescent, 11% of the Moon is Illuminated
Today
Waning Crescent
Oct 23
New
Oct 30
First Quarter
Nov 6
Full
Nov 14
Last Quarter

Today's Extremes

State Highs State Lows

Community

WunderPhotos

Upload Photos

1,763,349 photos uploaded!

WunderBlogs® & News

Nearby

Snow Depth

Station Depth Elevation
No new snow has been reported.

Earthquake Activity

City Distance Mag. Time & Date
No recent earthquake activity has been reported nearby.
Minimum magnitude displayed is 2.5.

Coastal Water Temperatures

Place Temperature
No Stations Reporting

Nearby Weather Stations